sensor_id;sensor_type;location;lat;lon;timestamp;pressure;altitude;pressure_sealevel;temperature;humidity
58373;BME280;44177;43.356;27.672;2023-06-05T00:00:43;98668.28;;;11.82;72.90
58373;BME280;44177;43.356;27.672;2023-06-05T00:03:08;98668.53;;;11.77;73.02
58373;BME280;44177;43.356;27.672;2023-06-05T00:05:33;98676.97;;;11.84;73.12
58373;BME280;44177;43.356;27.672;2023-06-05T00:07:59;98658.75;;;11.76;73.28
58373;BME280;44177;43.356;27.672;2023-06-05T00:10:25;98652.38;;;11.72;73.32
58373;BME280;44177;43.356;27.672;2023-06-05T00:12:50;98654.88;;;11.77;73.12
58373;BME280;44177;43.356;27.672;2023-06-05T00:15:16;98649.19;;;11.69;72.79
58373;BME280;44177;43.356;27.672;2023-06-05T00:17:41;98663.41;;;11.75;72.48
58373;BME280;44177;43.356;27.672;2023-06-05T00:20:07;98654.66;;;11.69;71.78
58373;BME280;44177;43.356;27.672;2023-06-05T00:22:35;98666.03;;;11.59;72.08
58373;BME280;44177;43.356;27.672;2023-06-05T00:25:00;98656.59;;;11.57;72.48
58373;BME280;44177;43.356;27.672;2023-06-05T00:27:25;98645.09;;;11.51;72.35
58373;BME280;44177;43.356;27.672;2023-06-05T00:29:51;98651.56;;;11.46;72.59
58373;BME280;44177;43.356;27.672;2023-06-05T00:32:17;98648.84;;;11.46;72.23
58373;BME280;44177;43.356;27.672;2023-06-05T00:34:42;98643.97;;;11.40;72.68
58373;BME280;44177;43.356;27.672;2023-06-05T00:37:08;98634.38;;;11.33;73.10
58373;BME280;44177;43.356;27.672;2023-06-05T00:39:33;98618.00;;;11.21;73.38
58373;BME280;44177;43.356;27.672;2023-06-05T00:41:58;98631.22;;;11.31;73.34
58373;BME280;44177;43.356;27.672;2023-06-05T00:44:24;98633.72;;;11.24;73.36
58373;BME280;44177;43.356;27.672;2023-06-05T00:46:52;98636.88;;;11.26;73.73
58373;BME280;44177;43.356;27.672;2023-06-05T00:49:18;98626.06;;;11.17;73.56
58373;BME280;44177;43.356;27.672;2023-06-05T00:51:45;98635.28;;;11.25;73.42
58373;BME280;44177;43.356;27.672;2023-06-05T00:54:11;98639.28;;;11.28;73.31
58373;BME280;44177;43.356;27.672;2023-06-05T00:56:40;98629.59;;;11.18;73.49
58373;BME280;44177;43.356;27.672;2023-06-05T00:59:06;98638.13;;;11.29;73.39
58373;BME280;44177;43.356;27.672;2023-06-05T01:01:32;98641.44;;;11.22;72.94
58373;BME280;44177;43.356;27.672;2023-06-05T01:04:00;98637.34;;;11.16;72.72
58373;BME280;44177;43.356;27.672;2023-06-05T01:06:27;98643.59;;;11.16;73.04
58373;BME280;44177;43.356;27.672;2023-06-05T01:08:53;98646.31;;;11.16;73.09
58373;BME280;44177;43.356;27.672;2023-06-05T01:11:35;98634.94;;;11.14;73.35
58373;BME280;44177;43.356;27.672;2023-06-05T01:14:11;98628.66;;;11.01;73.21
58373;BME280;44177;43.356;27.672;2023-06-05T01:16:41;98626.56;;;10.86;73.39
58373;BME280;44177;43.356;27.672;2023-06-05T01:19:13;98627.72;;;10.85;73.80
58373;BME280;44177;43.356;27.672;2023-06-05T01:21:40;98637.38;;;10.82;74.05
58373;BME280;44177;43.356;27.672;2023-06-05T01:24:05;98631.91;;;10.82;74.04
58373;BME280;44177;43.356;27.672;2023-06-05T01:26:45;98636.81;;;10.89;74.55
58373;BME280;44177;43.356;27.672;2023-06-05T01:29:24;98643.88;;;10.90;74.50
58373;BME280;44177;43.356;27.672;2023-06-05T01:31:55;98638.88;;;10.92;74.54
58373;BME280;44177;43.356;27.672;2023-06-05T01:34:25;98649.22;;;10.99;74.11
58373;BME280;44177;43.356;27.672;2023-06-05T01:36:52;98644.13;;;10.97;74.19
58373;BME280;44177;43.356;27.672;2023-06-05T01:39:18;98645.00;;;10.89;74.16
58373;BME280;44177;43.356;27.672;2023-06-05T01:41:44;98660.84;;;10.96;74.03
58373;BME280;44177;43.356;27.672;2023-06-05T01:44:13;98639.09;;;10.87;73.86
58373;BME280;44177;43.356;27.672;2023-06-05T01:46:41;98642.50;;;10.84;73.64
58373;BME280;44177;43.356;27.672;2023-06-05T01:49:07;98640.66;;;10.76;74.55
58373;BME280;44177;43.356;27.672;2023-06-05T01:51:33;98646.78;;;10.72;74.60
58373;BME280;44177;43.356;27.672;2023-06-05T01:53:59;98650.63;;;10.71;75.05
58373;BME280;44177;43.356;27.672;2023-06-05T01:56:24;98654.50;;;10.70;75.09
58373;BME280;44177;43.356;27.672;2023-06-05T01:58:50;98646.66;;;10.69;74.32
58373;BME280;44177;43.356;27.672;2023-06-05T02:01:18;98640.06;;;10.70;74.20
58373;BME280;44177;43.356;27.672;2023-06-05T02:03:48;98636.81;;;10.77;74.28
58373;BME280;44177;43.356;27.672;2023-06-05T02:06:15;98634.97;;;10.68;74.23
58373;BME280;44177;43.356;27.672;2023-06-05T02:08:42;98643.69;;;10.62;74.85
58373;BME280;44177;43.356;27.672;2023-06-05T02:11:07;98639.34;;;10.61;74.65
58373;BME280;44177;43.356;27.672;2023-06-05T02:13:37;98642.69;;;10.66;74.87
58373;BME280;44177;43.356;27.672;2023-06-05T02:16:04;98633.13;;;10.60;74.63
58373;BME280;44177;43.356;27.672;2023-06-05T02:18:29;98641.16;;;10.56;74.42
58373;BME280;44177;43.356;27.672;2023-06-05T02:20:55;98651.28;;;10.56;74.59
58373;BME280;44177;43.356;27.672;2023-06-05T02:23:22;98623.50;;;10.41;74.94
58373;BME280;44177;43.356;27.672;2023-06-05T02:25:48;98642.91;;;10.61;74.97
58373;BME280;44177;43.356;27.672;2023-06-05T02:28:14;98641.63;;;10.58;74.73
58373;BME280;44177;43.356;27.672;2023-06-05T02:30:41;98642.56;;;10.63;74.95
58373;BME280;44177;43.356;27.672;2023-06-05T02:33:10;98659.03;;;10.66;75.09
58373;BME280;44177;43.356;27.672;2023-06-05T02:35:36;98656.31;;;10.66;75.17
58373;BME280;44177;43.356;27.672;2023-06-05T02:38:02;98664.75;;;10.73;75.24
58373;BME280;44177;43.356;27.672;2023-06-05T02:40:30;98661.38;;;10.77;75.50
58373;BME280;44177;43.356;27.672;2023-06-05T02:42:55;98661.25;;;10.85;75.47
58373;BME280;44177;43.356;27.672;2023-06-05T02:45:21;98664.72;;;10.95;75.80
58373;BME280;44177;43.356;27.672;2023-06-05T02:47:48;98661.22;;;11.06;75.76
58373;BME280;44177;43.356;27.672;2023-06-05T02:50:13;98660.06;;;11.08;75.92
58373;BME280;44177;43.356;27.672;2023-06-05T02:52:39;98651.00;;;11.16;76.03
58373;BME280;44177;43.356;27.672;2023-06-05T02:55:05;98664.88;;;11.23;75.74
58373;BME280;44177;43.356;27.672;2023-06-05T02:57:32;98661.00;;;11.24;75.95
58373;BME280;44177;43.356;27.672;2023-06-05T03:00:09;98660.78;;;11.29;75.87
58373;BME280;44177;43.356;27.672;2023-06-05T03:02:35;98666.00;;;11.34;75.59
58373;BME280;44177;43.356;27.672;2023-06-05T03:05:04;98651.78;;;11.29;75.63
58373;BME280;44177;43.356;27.672;2023-06-05T03:07:29;98662.84;;;11.32;75.81
58373;BME280;44177;43.356;27.672;2023-06-05T03:09:55;98664.41;;;11.33;76.01
58373;BME280;44177;43.356;27.672;2023-06-05T03:12:20;98659.88;;;11.37;76.22
58373;BME280;44177;43.356;27.672;2023-06-05T03:14:46;98660.13;;;11.45;76.16
58373;BME280;44177;43.356;27.672;2023-06-05T03:17:11;98666.59;;;11.52;76.15
58373;BME280;44177;43.356;27.672;2023-06-05T03:19:37;98668.75;;;11.59;76.51
58373;BME280;44177;43.356;27.672;2023-06-05T03:22:03;98668.31;;;11.57;76.74
58373;BME280;44177;43.356;27.672;2023-06-05T03:24:29;98672.88;;;11.78;76.06
58373;BME280;44177;43.356;27.672;2023-06-05T03:26:54;98675.00;;;11.84;76.37
58373;BME280;44177;43.356;27.672;2023-06-05T03:29:20;98675.94;;;11.89;76.12
58373;BME280;44177;43.356;27.672;2023-06-05T03:31:45;98673.75;;;11.94;76.27
58373;BME280;44177;43.356;27.672;2023-06-05T03:34:11;98671.94;;;11.98;76.63
58373;BME280;44177;43.356;27.672;2023-06-05T03:36:36;98678.56;;;12.10;76.62
58373;BME280;44177;43.356;27.672;2023-06-05T03:39:05;98677.06;;;12.12;76.25
58373;BME280;44177;43.356;27.672;2023-06-05T03:41:30;98678.88;;;12.21;75.52
58373;BME280;44177;43.356;27.672;2023-06-05T03:43:56;98674.41;;;12.28;75.85
58373;BME280;44177;43.356;27.672;2023-06-05T03:46:24;98675.41;;;12.36;75.75
58373;BME280;44177;43.356;27.672;2023-06-05T03:48:50;98682.06;;;12.51;75.15
58373;BME280;44177;43.356;27.672;2023-06-05T03:51:18;98679.41;;;12.67;74.49
58373;BME280;44177;43.356;27.672;2023-06-05T03:53:45;98669.88;;;12.77;74.05
58373;BME280;44177;43.356;27.672;2023-06-05T03:56:11;98667.19;;;12.93;73.84
58373;BME280;44177;43.356;27.672;2023-06-05T03:58:37;98674.19;;;13.06;73.70
58373;BME280;44177;43.356;27.672;2023-06-05T04:01:06;98663.31;;;13.10;73.53
58373;BME280;44177;43.356;27.672;2023-06-05T04:03:32;98677.84;;;13.26;73.46
58373;BME280;44177;43.356;27.672;2023-06-05T04:05:57;98677.94;;;13.30;73.16
58373;BME280;44177;43.356;27.672;2023-06-05T04:08:23;98673.41;;;13.38;72.29
58373;BME280;44177;43.356;27.672;2023-06-05T04:10:49;98687.94;;;13.54;72.34
58373;BME280;44177;43.356;27.672;2023-06-05T04:13:15;98672.47;;;13.62;72.58
58373;BME280;44177;43.356;27.672;2023-06-05T04:15:41;98683.69;;;13.73;73.27
58373;BME280;44177;43.356;27.672;2023-06-05T04:18:08;98684.00;;;13.87;73.34
58373;BME280;44177;43.356;27.672;2023-06-05T04:20:33;98685.94;;;14.03;72.84
58373;BME280;44177;43.356;27.672;2023-06-05T04:22:59;98686.25;;;14.17;72.96
58373;BME280;44177;43.356;27.672;2023-06-05T04:25:24;98684.59;;;14.32;72.04
58373;BME280;44177;43.356;27.672;2023-06-05T04:27:54;98681.22;;;14.39;72.69
58373;BME280;44177;43.356;27.672;2023-06-05T04:30:21;98677.25;;;14.56;72.64
58373;BME280;44177;43.356;27.672;2023-06-05T04:32:46;98670.75;;;14.64;72.59
58373;BME280;44177;43.356;27.672;2023-06-05T04:35:19;98681.81;;;14.88;72.71
58373;BME280;44177;43.356;27.672;2023-06-05T04:37:45;98694.28;;;15.05;69.81
58373;BME280;44177;43.356;27.672;2023-06-05T04:40:11;98683.44;;;15.12;70.05
58373;BME280;44177;43.356;27.672;2023-06-05T04:42:37;98700.66;;;15.32;69.38
58373;BME280;44177;43.356;27.672;2023-06-05T04:45:04;98708.38;;;15.46;69.30
58373;BME280;44177;43.356;27.672;2023-06-05T04:47:31;98714.00;;;15.53;68.65
58373;BME280;44177;43.356;27.672;2023-06-05T04:50:01;98705.50;;;15.62;70.00
58373;BME280;44177;43.356;27.672;2023-06-05T04:52:29;98719.47;;;15.76;69.87
58373;BME280;44177;43.356;27.672;2023-06-05T04:54:55;98718.16;;;15.90;68.25
58373;BME280;44177;43.356;27.672;2023-06-05T04:57:20;98717.06;;;15.98;67.74
58373;BME280;44177;43.356;27.672;2023-06-05T04:59:46;98722.91;;;16.20;67.99
58373;BME280;44177;43.356;27.672;2023-06-05T05:02:11;98723.84;;;16.31;66.53
58373;BME280;44177;43.356;27.672;2023-06-05T05:04:37;98727.53;;;16.42;65.05
58373;BME280;44177;43.356;27.672;2023-06-05T05:07:03;98729.59;;;16.49;64.05
58373;BME280;44177;43.356;27.672;2023-06-05T05:09:32;98729.06;;;16.70;63.83
58373;BME280;44177;43.356;27.672;2023-06-05T05:11:58;98727.72;;;16.87;64.38
58373;BME280;44177;43.356;27.672;2023-06-05T05:14:24;98726.53;;;16.88;63.49
58373;BME280;44177;43.356;27.672;2023-06-05T05:16:52;98732.44;;;16.90;59.90
58373;BME280;44177;43.356;27.672;2023-06-05T05:19:17;98727.44;;;16.96;63.60
58373;BME280;44177;43.356;27.672;2023-06-05T05:21:43;98738.06;;;16.98;59.05
58373;BME280;44177;43.356;27.672;2023-06-05T05:24:09;98739.03;;;17.13;61.82
58373;BME280;44177;43.356;27.672;2023-06-05T05:26:35;98742.28;;;17.22;61.59
58373;BME280;44177;43.356;27.672;2023-06-05T05:29:01;98733.47;;;17.47;60.79
58373;BME280;44177;43.356;27.672;2023-06-05T05:31:27;98741.47;;;17.59;58.83
58373;BME280;44177;43.356;27.672;2023-06-05T05:33:54;98734.34;;;17.58;57.89
58373;BME280;44177;43.356;27.672;2023-06-05T05:36:20;98747.44;;;17.65;59.48
58373;BME280;44177;43.356;27.672;2023-06-05T05:38:46;98728.59;;;17.74;58.10
58373;BME280;44177;43.356;27.672;2023-06-05T05:41:11;98744.44;;;17.88;57.79
58373;BME280;44177;43.356;27.672;2023-06-05T05:43:37;98735.06;;;17.96;57.24
58373;BME280;44177;43.356;27.672;2023-06-05T05:46:02;98735.22;;;18.14;55.58
58373;BME280;44177;43.356;27.672;2023-06-05T05:48:27;98729.69;;;18.14;57.69
58373;BME280;44177;43.356;27.672;2023-06-05T05:50:53;98731.78;;;18.36;57.09
58373;BME280;44177;43.356;27.672;2023-06-05T05:53:18;98723.59;;;18.54;56.92
58373;BME280;44177;43.356;27.672;2023-06-05T05:55:45;98707.88;;;18.76;56.39
58373;BME280;44177;43.356;27.672;2023-06-05T05:58:10;98711.50;;;18.91;54.55
58373;BME280;44177;43.356;27.672;2023-06-05T06:00:36;98717.09;;;19.09;55.78
58373;BME280;44177;43.356;27.672;2023-06-05T06:03:02;98712.78;;;19.30;55.64
58373;BME280;44177;43.356;27.672;2023-06-05T06:05:27;98708.47;;;19.65;54.02
58373;BME280;44177;43.356;27.672;2023-06-05T06:07:54;98719.19;;;19.92;52.72
58373;BME280;44177;43.356;27.672;2023-06-05T06:10:20;98720.75;;;20.14;52.29
58373;BME280;44177;43.356;27.672;2023-06-05T06:12:45;98712.78;;;20.38;52.16
58373;BME280;44177;43.356;27.672;2023-06-05T06:15:11;98708.69;;;20.75;50.98
58373;BME280;44177;43.356;27.672;2023-06-05T06:17:37;98709.41;;;20.94;50.55
58373;BME280;44177;43.356;27.672;2023-06-05T06:20:05;98705.00;;;21.04;42.08
58373;BME280;44177;43.356;27.672;2023-06-05T06:22:31;98714.84;;;21.16;43.09
58373;BME280;44177;43.356;27.672;2023-06-05T06:24:57;98710.72;;;21.38;41.77
58373;BME280;44177;43.356;27.672;2023-06-05T06:27:22;98714.97;;;21.54;40.27
58373;BME280;44177;43.356;27.672;2023-06-05T06:29:51;98719.38;;;21.48;41.53
58373;BME280;44177;43.356;27.672;2023-06-05T06:32:20;98727.19;;;21.67;41.62
58373;BME280;44177;43.356;27.672;2023-06-05T06:34:47;98717.06;;;21.35;39.87
58373;BME280;44177;43.356;27.672;2023-06-05T06:37:16;98717.13;;;21.28;40.39
58373;BME280;44177;43.356;27.672;2023-06-05T06:39:42;98721.25;;;21.65;40.07
58373;BME280;44177;43.356;27.672;2023-06-05T06:42:11;98717.41;;;21.97;39.37
58373;BME280;44177;43.356;27.672;2023-06-05T06:44:38;98723.09;;;21.83;38.42
58373;BME280;44177;43.356;27.672;2023-06-05T06:47:04;98727.03;;;21.89;37.18
58373;BME280;44177;43.356;27.672;2023-06-05T06:49:29;98720.88;;;22.08;36.33
58373;BME280;44177;43.356;27.672;2023-06-05T06:51:55;98713.94;;;22.28;36.33
58373;BME280;44177;43.356;27.672;2023-06-05T06:54:21;98721.09;;;22.25;34.74
58373;BME280;44177;43.356;27.672;2023-06-05T06:56:47;98709.09;;;22.35;35.88
58373;BME280;44177;43.356;27.672;2023-06-05T06:59:15;98724.34;;;22.20;34.02
58373;BME280;44177;43.356;27.672;2023-06-05T07:01:44;98703.09;;;22.75;35.99
58373;BME280;44177;43.356;27.672;2023-06-05T07:04:16;98720.66;;;23.30;35.76
58373;BME280;44177;43.356;27.672;2023-06-05T07:06:48;98722.78;;;23.46;34.57
58373;BME280;44177;43.356;27.672;2023-06-05T07:09:14;98725.41;;;23.81;35.09
58373;BME280;44177;43.356;27.672;2023-06-05T07:11:39;98711.81;;;24.10;33.00
58373;BME280;44177;43.356;27.672;2023-06-05T07:14:05;98710.84;;;24.41;33.49
58373;BME280;44177;43.356;27.672;2023-06-05T07:16:33;98697.91;;;24.51;31.19
58373;BME280;44177;43.356;27.672;2023-06-05T07:18:58;98706.50;;;24.60;31.80
58373;BME280;44177;43.356;27.672;2023-06-05T07:21:24;98706.34;;;24.47;33.99
58373;BME280;44177;43.356;27.672;2023-06-05T07:23:50;98701.28;;;24.42;32.77
58373;BME280;44177;43.356;27.672;2023-06-05T07:26:19;98699.31;;;24.19;32.75
58373;BME280;44177;43.356;27.672;2023-06-05T07:28:45;98696.91;;;24.61;33.48
58373;BME280;44177;43.356;27.672;2023-06-05T07:31:12;98702.56;;;24.98;32.45
58373;BME280;44177;43.356;27.672;2023-06-05T07:33:38;98707.72;;;25.16;33.48
58373;BME280;44177;43.356;27.672;2023-06-05T07:36:04;98703.13;;;25.26;31.66
58373;BME280;44177;43.356;27.672;2023-06-05T07:38:30;98702.28;;;25.78;30.47
58373;BME280;44177;43.356;27.672;2023-06-05T07:40:55;98684.19;;;25.33;31.64
58373;BME280;44177;43.356;27.672;2023-06-05T07:43:27;98690.38;;;25.25;28.30
58373;BME280;44177;43.356;27.672;2023-06-05T07:45:53;98691.59;;;25.23;30.66
58373;BME280;44177;43.356;27.672;2023-06-05T07:48:18;98699.84;;;25.47;31.36
58373;BME280;44177;43.356;27.672;2023-06-05T07:50:44;98698.63;;;25.48;30.33
58373;BME280;44177;43.356;27.672;2023-06-05T07:53:09;98705.44;;;25.64;30.32
58373;BME280;44177;43.356;27.672;2023-06-05T07:55:35;98700.59;;;26.43;30.42
58373;BME280;44177;43.356;27.672;2023-06-05T07:58:01;98701.16;;;26.80;29.42
58373;BME280;44177;43.356;27.672;2023-06-05T08:00:27;98688.19;;;27.38;26.40
58373;BME280;44177;43.356;27.672;2023-06-05T08:02:52;98693.69;;;27.29;27.85
58373;BME280;44177;43.356;27.672;2023-06-05T08:05:18;98687.63;;;27.43;27.44
58373;BME280;44177;43.356;27.672;2023-06-05T08:07:45;98691.00;;;27.51;28.13
58373;BME280;44177;43.356;27.672;2023-06-05T08:10:11;98680.34;;;27.59;27.85
58373;BME280;44177;43.356;27.672;2023-06-05T08:12:37;98688.41;;;28.05;28.37
58373;BME280;44177;43.356;27.672;2023-06-05T08:15:03;98688.84;;;28.61;27.06
58373;BME280;44177;43.356;27.672;2023-06-05T08:17:28;98697.34;;;29.02;27.10
58373;BME280;44177;43.356;27.672;2023-06-05T08:19:54;98681.47;;;29.08;26.73
58373;BME280;44177;43.356;27.672;2023-06-05T08:22:19;98685.38;;;29.51;25.60
58373;BME280;44177;43.356;27.672;2023-06-05T08:24:45;98685.84;;;29.40;26.29
58373;BME280;44177;43.356;27.672;2023-06-05T08:27:10;98682.34;;;29.27;25.25
58373;BME280;44177;43.356;27.672;2023-06-05T08:29:36;98681.53;;;29.26;25.18
58373;BME280;44177;43.356;27.672;2023-06-05T08:32:05;98685.44;;;29.29;26.28
58373;BME280;44177;43.356;27.672;2023-06-05T08:34:31;98683.34;;;29.11;26.38
58373;BME280;44177;43.356;27.672;2023-06-05T08:36:57;98688.19;;;28.79;26.60
58373;BME280;44177;43.356;27.672;2023-06-05T08:39:24;98704.88;;;29.05;28.35
58373;BME280;44177;43.356;27.672;2023-06-05T08:41:53;98691.50;;;29.18;26.38
58373;BME280;44177;43.356;27.672;2023-06-05T08:44:20;98688.91;;;29.02;27.73
58373;BME280;44177;43.356;27.672;2023-06-05T08:46:46;98686.50;;;29.13;26.47
58373;BME280;44177;43.356;27.672;2023-06-05T08:49:14;98684.81;;;28.93;27.57
58373;BME280;44177;43.356;27.672;2023-06-05T08:51:44;98685.72;;;29.22;27.11
58373;BME280;44177;43.356;27.672;2023-06-05T08:54:12;98684.13;;;29.43;28.07
58373;BME280;44177;43.356;27.672;2023-06-05T08:56:40;98684.03;;;29.65;28.31
58373;BME280;44177;43.356;27.672;2023-06-05T08:59:07;98685.06;;;29.40;26.34
58373;BME280;44177;43.356;27.672;2023-06-05T09:01:32;98684.31;;;29.17;27.01
58373;BME280;44177;43.356;27.672;2023-06-05T09:03:58;98683.81;;;29.50;27.95
58373;BME280;44177;43.356;27.672;2023-06-05T09:06:23;98673.59;;;29.84;25.48
58373;BME280;44177;43.356;27.672;2023-06-05T09:08:48;98681.06;;;29.69;24.84
58373;BME280;44177;43.356;27.672;2023-06-05T09:11:31;98677.94;;;29.76;25.18
58373;BME280;44177;43.356;27.672;2023-06-05T09:13:58;98678.25;;;29.69;25.29
58373;BME280;44177;43.356;27.672;2023-06-05T09:16:34;98675.22;;;29.44;24.74
58373;BME280;44177;43.356;27.672;2023-06-05T09:19:00;98669.69;;;29.22;24.67
58373;BME280;44177;43.356;27.672;2023-06-05T09:21:28;98683.22;;;29.65;26.14
58373;BME280;44177;43.356;27.672;2023-06-05T09:24:13;98677.75;;;29.61;25.28
58373;BME280;44177;43.356;27.672;2023-06-05T09:27:07;98689.75;;;29.43;25.19
58373;BME280;44177;43.356;27.672;2023-06-05T09:29:35;98665.31;;;30.08;25.41
58373;BME280;44177;43.356;27.672;2023-06-05T09:32:03;98687.66;;;30.31;25.19
58373;BME280;44177;43.356;27.672;2023-06-05T09:34:31;98691.81;;;29.52;24.10
58373;BME280;44177;43.356;27.672;2023-06-05T09:36:58;98685.13;;;29.77;25.27
58373;BME280;44177;43.356;27.672;2023-06-05T09:39:25;98690.50;;;30.03;25.72
58373;BME280;44177;43.356;27.672;2023-06-05T09:41:52;98682.31;;;30.70;25.05
58373;BME280;44177;43.356;27.672;2023-06-05T09:44:21;98696.59;;;31.18;23.06
58373;BME280;44177;43.356;27.672;2023-06-05T09:47:00;98682.97;;;31.50;25.36
58373;BME280;44177;43.356;27.672;2023-06-05T09:49:31;98684.53;;;31.52;23.78
58373;BME280;44177;43.356;27.672;2023-06-05T09:51:59;98691.47;;;31.41;24.25
58373;BME280;44177;43.356;27.672;2023-06-05T09:54:28;98681.09;;;31.47;24.63
58373;BME280;44177;43.356;27.672;2023-06-05T09:57:01;98690.78;;;30.51;24.37
58373;BME280;44177;43.356;27.672;2023-06-05T09:59:35;98693.38;;;31.35;23.50
58373;BME280;44177;43.356;27.672;2023-06-05T10:02:07;98683.56;;;31.55;24.51
58373;BME280;44177;43.356;27.672;2023-06-05T10:04:39;98684.88;;;31.44;24.40
58373;BME280;44177;43.356;27.672;2023-06-05T10:07:07;98687.72;;;31.01;24.39
58373;BME280;44177;43.356;27.672;2023-06-05T10:09:33;98680.53;;;31.00;25.83
58373;BME280;44177;43.356;27.672;2023-06-05T10:11:59;98691.28;;;31.11;23.88
58373;BME280;44177;43.356;27.672;2023-06-05T10:14:25;98688.09;;;31.28;23.25
58373;BME280;44177;43.356;27.672;2023-06-05T10:16:51;98690.88;;;31.37;23.59
58373;BME280;44177;43.356;27.672;2023-06-05T10:19:19;98683.59;;;30.60;22.31
58373;BME280;44177;43.356;27.672;2023-06-05T10:21:48;98680.63;;;31.49;23.46
58373;BME280;44177;43.356;27.672;2023-06-05T10:24:20;98678.28;;;31.47;23.69
58373;BME280;44177;43.356;27.672;2023-06-05T10:33:17;98679.06;;;31.48;23.22
58373;BME280;44177;43.356;27.672;2023-06-05T10:40:26;98664.72;;;31.37;22.96
58373;BME280;44177;43.356;27.672;2023-06-05T10:42:52;98654.31;;;31.76;23.09
58373;BME280;44177;43.356;27.672;2023-06-05T10:45:35;98650.75;;;31.91;22.44
58373;BME280;44177;43.356;27.672;2023-06-05T10:48:01;98645.34;;;31.29;20.65
58373;BME280;44177;43.356;27.672;2023-06-05T10:50:28;98630.63;;;31.98;22.20
58373;BME280;44177;43.356;27.672;2023-06-05T10:52:56;98639.66;;;32.41;21.11
58373;BME280;44177;43.356;27.672;2023-06-05T10:55:23;98648.59;;;32.25;21.08
58373;BME280;44177;43.356;27.672;2023-06-05T11:00:21;98636.03;;;31.38;20.43
58373;BME280;44177;43.356;27.672;2023-06-05T11:02:47;98642.00;;;31.40;20.60
58373;BME280;44177;43.356;27.672;2023-06-05T11:05:14;98631.66;;;31.86;19.68
58373;BME280;44177;43.356;27.672;2023-06-05T11:07:40;98629.69;;;32.16;17.83
58373;BME280;44177;43.356;27.672;2023-06-05T11:10:19;98628.00;;;32.79;19.52
58373;BME280;44177;43.356;27.672;2023-06-05T11:17:48;98626.59;;;32.59;19.96
58373;BME280;44177;43.356;27.672;2023-06-05T11:30:27;98629.13;;;32.57;17.11
58373;BME280;44177;43.356;27.672;2023-06-05T11:32:57;98615.91;;;32.78;18.34
58373;BME280;44177;43.356;27.672;2023-06-05T11:35:30;98619.75;;;31.42;19.50
58373;BME280;44177;43.356;27.672;2023-06-05T11:38:18;98614.66;;;31.95;21.06
58373;BME280;44177;43.356;27.672;2023-06-05T11:40:44;98626.78;;;31.47;22.29
58373;BME280;44177;43.356;27.672;2023-06-05T11:43:12;98623.72;;;30.93;21.10
58373;BME280;44177;43.356;27.672;2023-06-05T11:45:39;98630.16;;;30.93;20.64
58373;BME280;44177;43.356;27.672;2023-06-05T11:48:09;98622.50;;;30.84;20.33
58373;BME280;44177;43.356;27.672;2023-06-05T11:50:37;98620.59;;;31.58;22.14
58373;BME280;44177;43.356;27.672;2023-06-05T11:53:07;98633.63;;;31.22;22.14
58373;BME280;44177;43.356;27.672;2023-06-05T11:55:33;98642.25;;;30.75;21.81
58373;BME280;44177;43.356;27.672;2023-06-05T11:58:23;98642.53;;;30.86;21.18
58373;BME280;44177;43.356;27.672;2023-06-05T12:00:50;98641.25;;;30.17;21.99
58373;BME280;44177;43.356;27.672;2023-06-05T12:03:19;98643.56;;;30.46;22.29
58373;BME280;44177;43.356;27.672;2023-06-05T12:05:48;98647.63;;;30.54;22.03
58373;BME280;44177;43.356;27.672;2023-06-05T12:08:28;98638.44;;;30.17;22.07
58373;BME280;44177;43.356;27.672;2023-06-05T12:11:02;98650.59;;;30.69;22.10
58373;BME280;44177;43.356;27.672;2023-06-05T12:13:51;98646.06;;;30.35;21.38
58373;BME280;44177;43.356;27.672;2023-06-05T12:16:17;98648.59;;;30.05;21.70
58373;BME280;44177;43.356;27.672;2023-06-05T12:18:46;98643.09;;;30.57;21.85
58373;BME280;44177;43.356;27.672;2023-06-05T12:21:21;98643.91;;;30.39;22.21
58373;BME280;44177;43.356;27.672;2023-06-05T12:23:47;98642.06;;;30.08;21.46
58373;BME280;44177;43.356;27.672;2023-06-05T12:26:14;98634.25;;;29.93;22.06
58373;BME280;44177;43.356;27.672;2023-06-05T12:28:41;98640.81;;;30.00;22.06
58373;BME280;44177;43.356;27.672;2023-06-05T12:31:07;98636.69;;;29.54;23.08
58373;BME280;44177;43.356;27.672;2023-06-05T12:33:33;98637.03;;;29.75;22.62
58373;BME280;44177;43.356;27.672;2023-06-05T12:36:10;98642.00;;;29.52;22.90
58373;BME280;44177;43.356;27.672;2023-06-05T12:38:40;98647.34;;;29.97;23.14
58373;BME280;44177;43.356;27.672;2023-06-05T12:41:09;98642.53;;;29.97;23.96
58373;BME280;44177;43.356;27.672;2023-06-05T12:43:35;98638.25;;;29.65;23.53
58373;BME280;44177;43.356;27.672;2023-06-05T12:46:01;98640.91;;;29.77;23.68
58373;BME280;44177;43.356;27.672;2023-06-05T12:48:27;98643.56;;;29.53;25.43
58373;BME280;44177;43.356;27.672;2023-06-05T12:50:52;98637.66;;;29.79;23.80
58373;BME280;44177;43.356;27.672;2023-06-05T12:53:19;98636.97;;;29.38;25.31
58373;BME280;44177;43.356;27.672;2023-06-05T12:55:45;98635.84;;;28.94;25.25
58373;BME280;44177;43.356;27.672;2023-06-05T12:58:11;98641.75;;;28.56;26.36
58373;BME280;44177;43.356;27.672;2023-06-05T13:00:36;98642.47;;;27.89;26.25
58373;BME280;44177;43.356;27.672;2023-06-05T13:03:02;98632.56;;;28.11;26.86
58373;BME280;44177;43.356;27.672;2023-06-05T13:05:29;98634.31;;;28.40;26.27
58373;BME280;44177;43.356;27.672;2023-06-05T13:07:57;98618.19;;;28.84;25.43
58373;BME280;44177;43.356;27.672;2023-06-05T13:10:22;98622.19;;;29.06;26.64
58373;BME280;44177;43.356;27.672;2023-06-05T13:12:48;98595.88;;;28.81;25.55
58373;BME280;44177;43.356;27.672;2023-06-05T13:15:13;98632.78;;;28.48;26.02
58373;BME280;44177;43.356;27.672;2023-06-05T13:17:39;98619.75;;;27.74;26.24
58373;BME280;44177;43.356;27.672;2023-06-05T13:20:05;98627.41;;;28.31;27.26